Spanish Ranch, California
Current Conditions -  °F | °C
As of 9:52 AM on Friday 24 Oct 2014 (Local Time) from KBLU Reporting Station
NA  
Wind Chill: 59°   Ceiling: NA
Heat Index: 59°   Visibility: 10mi
Dew Point: 29°   Wind: 10mph
Humidity: 32%   Direction: 150°SSE
Pressure: 30.14"   Gusts: NA
Location:  39.939°N, 120.918°W
Report Text: KBLU 241652Z AUTO 15009KT 10SM 15/M02 A3014 RMK AO2 SLP152 T01501017 $
Loading
Personal Weather Stations






























Interactive Weather Map
Tropical Storm Tracking
New forecast layout! Learn more

10-Day Weather Forecast

Advertisements
Track Severe Weather on mobile